Terminal Aerodrome Forecast
Issued by NWS

Home | Current Version | Previous Version | Text Only | Print | Product List | Glossary On
Versions: 1 2 3 4 5 6 7 8 9 10 11 12 13 14 15 16 17 18 19
000
FTUS42 KMLB 060025 AAA
TAFSUA
TAF AMD
KSUA 060025Z 0600/0624 34004KT P6SM VCSH SCT023 BKN050 OVC120
     FM060100 36010KT P6SM VCSH SCT020 BKN050 OVC200
     FM060600 34008KT P6SM VCSH FEW025 BKN080
     FM061400 31010KT P6SM VCSH FEW025 SCT050 BKN250=

USA.gov is the U.S. government's official web portal to all federal, state and local government web resources and services.